createdAt,value
2023-05-09T00:01:30.289Z,62.46
2023-05-09T00:03:05.347Z,59.15
2023-05-09T00:04:35.501Z,54.80
2023-05-09T00:06:02.104Z,53.98
2023-05-09T00:07:36.002Z,55.13
2023-05-09T00:08:59.990Z,56.20
2023-05-09T00:10:21.469Z,57.23
2023-05-09T00:11:55.032Z,58.32
2023-05-09T00:13:16.379Z,58.90
2023-05-09T00:15:01.052Z,59.74
2023-05-09T00:16:25.217Z,60.58
2023-05-09T00:17:54.976Z,61.43
2023-05-09T00:19:24.444Z,62.04
2023-05-09T00:21:05.493Z,62.41
2023-05-09T00:22:30.468Z,63.73
2023-05-09T00:24:02.404Z,62.86
2023-05-09T00:25:26.061Z,59.74
2023-05-09T00:26:48.476Z,55.96
2023-05-09T00:28:21.449Z,54.42
2023-05-09T00:29:52.984Z,54.79
2023-05-09T00:31:14.741Z,55.88
2023-05-09T00:32:41.192Z,57.07
2023-05-09T00:34:05.806Z,58.10
2023-05-09T00:35:35.059Z,59.09
2023-05-09T00:37:07.064Z,60.12
2023-05-09T00:38:28.988Z,60.55
2023-05-09T00:40:02.570Z,61.50
2023-05-09T00:41:24.505Z,62.07
2023-05-09T00:42:58.198Z,62.70
2023-05-09T00:44:27.256Z,64.08
2023-05-09T00:46:01.208Z,61.69
2023-05-09T00:47:23.081Z,58.05
2023-05-09T00:48:52.376Z,54.86
2023-05-09T00:50:16.169Z,54.36
2023-05-09T00:51:38.024Z,55.29
2023-05-09T00:53:13.715Z,56.34
2023-05-09T00:54:38.097Z,57.42
2023-05-09T00:56:02.245Z,58.47
2023-05-09T00:57:24.273Z,59.57
2023-05-09T00:58:59.944Z,60.20
2023-05-09T01:00:33.156Z,60.76
2023-05-09T01:02:08.998Z,61.22
2023-05-09T01:03:31.255Z,61.85
2023-05-09T01:04:53.315Z,62.20
2023-05-09T01:06:17.751Z,63.39
2023-05-09T01:07:39.633Z,63.53
2023-05-09T01:09:07.290Z,60.78
2023-05-09T01:10:29.172Z,56.64
2023-05-09T01:11:51.044Z,54.20
2023-05-09T01:13:12.697Z,54.06
2023-05-09T01:14:36.498Z,54.61
2023-05-09T01:16:12.365Z,55.65
2023-05-09T01:17:34.127Z,57.20
2023-05-09T01:19:06.333Z,58.20
2023-05-09T01:20:28.601Z,58.74
2023-05-09T01:21:57.777Z,59.91
2023-05-09T01:23:22.052Z,60.27
2023-05-09T01:24:48.642Z,60.70
2023-05-09T01:26:12.961Z,61.10
2023-05-09T01:27:44.664Z,61.60
2023-05-09T01:29:06.627Z,62.05
2023-05-09T01:30:30.477Z,62.38
2023-05-09T01:31:59.597Z,63.48
2023-05-09T01:33:20.983Z,63.38
2023-05-09T01:34:42.967Z,60.30
2023-05-09T01:36:05.173Z,56.52
2023-05-09T01:37:29.326Z,54.02
2023-05-09T01:38:51.151Z,53.90
2023-05-09T01:40:12.615Z,54.69
2023-05-09T01:41:34.130Z,55.57
2023-05-09T01:42:56.138Z,56.92
2023-05-09T01:44:20.586Z,57.44
2023-05-09T01:45:50.101Z,58.03
2023-05-09T01:47:23.688Z,58.53
2023-05-09T01:48:45.077Z,58.99
2023-05-09T01:50:08.832Z,59.51
2023-05-09T01:51:31.169Z,59.95
2023-05-09T01:52:55.093Z,60.45
2023-05-09T01:54:26.250Z,60.85
2023-05-09T01:55:59.864Z,61.46
2023-05-09T01:57:21.110Z,61.58
2023-05-09T01:58:48.201Z,62.19
2023-05-09T02:00:12.917Z,62.30
2023-05-09T02:01:52.569Z,63.64
2023-05-09T02:03:14.174Z,63.36
2023-05-09T02:04:36.181Z,60.27
2023-05-09T02:05:57.875Z,55.91
2023-05-09T02:07:19.660Z,53.20
2023-05-09T02:08:45.932Z,53.57
2023-05-09T02:10:30.034Z,54.39
2023-05-09T02:11:52.947Z,55.13
2023-05-09T02:13:26.903Z,55.82
2023-05-09T02:14:51.393Z,56.34
2023-05-09T02:16:15.610Z,57.14
2023-05-09T02:17:39.697Z,57.86
2023-05-09T02:19:02.053Z,58.42
2023-05-09T02:20:42.228Z,58.94
2023-05-09T02:22:12.991Z,59.65
2023-05-09T02:23:34.674Z,60.06
2023-05-09T02:25:01.241Z,60.67
2023-05-09T02:26:32.298Z,61.19
2023-05-09T02:28:05.804Z,61.71
2023-05-09T02:29:30.170Z,62.00
2023-05-09T02:31:06.056Z,62.54
2023-05-09T02:32:30.198Z,63.58
2023-05-09T02:33:52.780Z,62.25
2023-05-09T02:35:22.326Z,58.53
2023-05-09T02:36:51.601Z,54.69
2023-05-09T02:38:23.046Z,53.88
2023-05-09T02:39:44.592Z,54.35
2023-05-09T02:41:14.170Z,55.08
2023-05-09T02:42:36.134Z,56.00
2023-05-09T02:44:17.202Z,56.86
2023-05-09T02:45:41.372Z,57.72
2023-05-09T02:47:03.535Z,58.44
2023-05-09T02:48:25.657Z,59.40
2023-05-09T02:49:59.616Z,60.11
2023-05-09T02:51:24.147Z,60.93
2023-05-09T02:52:57.648Z,61.48
2023-05-09T02:54:21.601Z,62.11
2023-05-09T02:55:45.752Z,63.18
2023-05-09T02:57:09.859Z,63.21
2023-05-09T02:58:55.610Z,60.10
2023-05-09T03:00:31.505Z,56.47
2023-05-09T03:01:55.895Z,54.62
2023-05-09T03:03:31.842Z,55.15
2023-05-09T03:04:54.057Z,56.34
2023-05-09T03:06:39.318Z,57.47
2023-05-09T03:08:03.584Z,58.19
2023-05-09T03:09:32.704Z,59.03
2023-05-09T03:10:57.191Z,60.16
2023-05-09T03:12:19.131Z,60.50
2023-05-09T03:13:43.393Z,61.12
2023-05-09T03:15:07.908Z,61.87
2023-05-09T03:16:31.808Z,62.17
2023-05-09T03:18:01.723Z,62.81
2023-05-09T03:19:26.424Z,63.80
2023-05-09T03:20:48.469Z,61.61
2023-05-09T03:22:19.203Z,57.99
2023-05-09T03:24:02.824Z,54.65
2023-05-09T03:25:38.361Z,54.50
2023-05-09T03:27:11.572Z,55.72
2023-05-09T03:28:35.995Z,56.87
2023-05-09T03:29:59.870Z,57.84
2023-05-09T03:31:21.004Z,58.70
2023-05-09T03:32:50.212Z,59.55
2023-05-09T03:34:17.171Z,59.94
2023-05-09T03:35:41.430Z,60.69
2023-05-09T03:37:11.211Z,61.53
2023-05-09T03:38:35.154Z,62.13
2023-05-09T03:40:09.003Z,63.49
2023-05-09T03:41:36.316Z,63.64
2023-05-09T03:43:10.028Z,61.11
2023-05-09T03:44:34.006Z,57.29
2023-05-09T03:46:04.060Z,54.86
2023-05-09T03:47:26.390Z,54.84
2023-05-09T03:48:48.669Z,55.82
2023-05-09T03:50:21.823Z,57.40
2023-05-09T03:51:54.122Z,58.50
2023-05-09T03:53:18.823Z,59.31
2023-05-09T03:54:52.947Z,59.64
2023-05-09T03:56:16.687Z,60.32
2023-05-09T03:57:42.494Z,60.99
2023-05-09T03:59:11.956Z,61.35
2023-05-09T04:00:36.171Z,61.55
2023-05-09T04:02:03.303Z,62.15
2023-05-09T04:03:25.034Z,62.60
2023-05-09T04:04:54.743Z,63.76
2023-05-09T04:06:24.021Z,62.32
2023-05-09T04:07:53.063Z,58.75
2023-05-09T04:09:15.673Z,55.07
2023-05-09T04:10:37.397Z,54.09
2023-05-09T04:12:01.383Z,54.61
2023-05-09T04:13:31.771Z,55.71
2023-05-09T04:14:56.447Z,56.64
2023-05-09T04:16:19.171Z,57.56
2023-05-09T04:17:40.769Z,58.31
2023-05-09T04:19:02.634Z,59.07
2023-05-09T04:20:32.902Z,59.20
2023-05-09T04:22:18.042Z,59.71
2023-05-09T04:23:45.124Z,60.25
2023-05-09T04:25:28.222Z,60.64
2023-05-09T04:26:53.111Z,61.52
2023-05-09T04:28:28.547Z,62.03
2023-05-09T04:29:51.556Z,62.05
2023-05-09T04:31:21.200Z,62.09
2023-05-09T04:32:46.142Z,62.27
2023-05-09T04:34:08.064Z,62.90
2023-05-09T04:35:32.519Z,63.29
2023-05-09T04:37:02.221Z,61.22
2023-05-09T04:38:43.365Z,56.59
2023-05-09T04:40:15.999Z,54.15
2023-05-09T04:41:44.393Z,54.99
2023-05-09T04:43:20.151Z,55.41
2023-05-09T04:44:42.419Z,56.18
2023-05-09T04:46:04.460Z,56.57
2023-05-09T04:47:34.016Z,57.29
2023-05-09T04:49:03.720Z,58.26
2023-05-09T04:50:39.575Z,58.82
2023-05-09T04:52:12.451Z,58.96
2023-05-09T04:53:54.582Z,59.32
2023-05-09T04:55:19.412Z,59.64
2023-05-09T04:57:13.751Z,60.25
2023-05-09T04:58:41.873Z,60.46
2023-05-09T05:00:07.349Z,60.77
2023-05-09T05:01:32.604Z,61.13
2023-05-09T05:02:54.721Z,61.07
2023-05-09T05:04:18.471Z,61.13
2023-05-09T05:05:52.404Z,61.60
2023-05-09T05:07:37.540Z,61.81
2023-05-09T05:09:02.834Z,61.79
2023-05-09T05:10:36.353Z,62.27
2023-05-09T05:12:09.805Z,62.51
2023-05-09T05:13:34.513Z,63.34
2023-05-09T05:15:19.764Z,61.32
2023-05-09T05:16:56.877Z,56.64
2023-05-09T05:18:30.207Z,53.81
2023-05-09T05:20:02.997Z,53.57
2023-05-09T05:21:37.044Z,54.34
2023-05-09T05:23:22.020Z,55.06
2023-05-09T05:24:46.597Z,56.26
2023-05-09T05:26:20.132Z,56.65
2023-05-09T05:27:44.805Z,57.46
2023-05-09T05:29:10.738Z,58.05
2023-05-09T05:30:35.477Z,58.56
2023-05-09T05:31:57.766Z,58.64
2023-05-09T05:33:31.140Z,59.05
2023-05-09T05:34:53.748Z,58.77
2023-05-09T05:36:15.353Z,58.73
2023-05-09T05:37:49.186Z,59.13
2023-05-09T05:39:42.309Z,59.08
2023-05-09T05:41:18.672Z,59.35
2023-05-09T05:42:41.074Z,59.16
2023-05-09T05:44:10.264Z,59.29
2023-05-09T05:45:44.128Z,59.68
2023-05-09T05:47:17.785Z,59.76
2023-05-09T05:48:40.392Z,59.73
2023-05-09T05:50:16.100Z,59.63
2023-05-09T05:51:45.692Z,59.64
2023-05-09T05:53:26.894Z,59.18
2023-05-09T05:55:12.263Z,59.12
2023-05-09T05:56:51.474Z,59.26
2023-05-09T05:58:13.036Z,59.04
2023-05-09T05:59:49.428Z,58.76
2023-05-09T06:01:18.601Z,58.80
2023-05-09T06:02:52.360Z,58.55
2023-05-09T06:04:32.453Z,58.39
2023-05-09T06:05:54.676Z,57.77
2023-05-09T06:07:18.204Z,57.86
2023-05-09T06:09:01.226Z,58.22
2023-05-09T06:10:45.974Z,58.06
2023-05-09T06:12:17.346Z,58.37
2023-05-09T06:13:48.825Z,57.87
2023-05-09T06:15:11.352Z,57.60
2023-05-09T06:16:46.545Z,57.33
2023-05-09T06:18:22.517Z,57.24
2023-05-09T06:19:54.108Z,57.07
2023-05-09T06:21:16.007Z,57.32
2023-05-09T06:22:45.372Z,57.10
2023-05-09T06:24:27.480Z,56.84
2023-05-09T06:26:01.195Z,56.14
2023-05-09T06:27:25.544Z,55.96
2023-05-09T06:28:50.043Z,53.98
2023-05-09T06:30:24.755Z,54.51
2023-05-09T06:31:48.482Z,54.30
2023-05-09T06:33:21.653Z,53.57
2023-05-09T06:34:48.154Z,53.47
2023-05-09T06:36:12.186Z,53.07
2023-05-09T06:37:33.804Z,53.15
2023-05-09T06:38:58.767Z,53.80
2023-05-09T06:40:29.664Z,53.15
2023-05-09T06:41:58.701Z,52.77
2023-05-09T06:43:32.875Z,52.31
2023-05-09T06:45:02.615Z,51.00
2023-05-09T06:46:26.586Z,50.17
2023-05-09T06:47:51.188Z,51.68
2023-05-09T06:49:14.207Z,51.82
2023-05-09T06:50:38.375Z,51.12
2023-05-09T06:52:00.175Z,50.94
2023-05-09T06:53:29.574Z,50.18
2023-05-09T06:54:59.787Z,49.42
2023-05-09T06:56:22.674Z,48.36
2023-05-09T06:57:44.232Z,47.79
2023-05-09T06:59:20.204Z,47.70
2023-05-09T07:00:41.772Z,47.51
2023-05-09T07:02:06.386Z,47.45
2023-05-09T07:03:28.204Z,47.52
2023-05-09T07:04:50.223Z,48.23
2023-05-09T07:06:11.590Z,48.78
2023-05-09T07:07:35.532Z,49.01
2023-05-09T07:08:57.443Z,47.35
2023-05-09T07:10:18.907Z,47.32
2023-05-09T07:11:50.447Z,46.74
2023-05-09T07:13:12.168Z,46.33
2023-05-09T07:14:38.189Z,45.95
2023-05-09T07:16:00.337Z,46.46
2023-05-09T07:17:24.408Z,47.13
2023-05-09T07:18:46.464Z,47.45
2023-05-09T07:20:08.409Z,47.33
2023-05-09T07:21:37.440Z,46.96
2023-05-09T07:23:07.020Z,46.26
2023-05-09T07:24:28.940Z,46.71
2023-05-09T07:25:51.024Z,45.47
2023-05-09T07:27:12.518Z,46.09
2023-05-09T07:28:43.533Z,45.23
2023-05-09T07:30:13.262Z,44.90
2023-05-09T07:31:47.222Z,44.29
2023-05-09T07:33:08.899Z,44.20
2023-05-09T07:34:32.615Z,44.04
2023-05-09T07:35:57.150Z,43.37
2023-05-09T07:37:26.161Z,43.46
2023-05-09T07:38:52.903Z,43.47
2023-05-09T07:40:26.414Z,43.51
2023-05-09T07:41:50.690Z,42.92
2023-05-09T07:43:12.634Z,43.02
2023-05-09T07:44:46.187Z,42.53
2023-05-09T07:46:07.976Z,43.15
2023-05-09T07:47:30.088Z,42.75
2023-05-09T07:48:56.939Z,43.07
2023-05-09T07:50:33.189Z,43.82
2023-05-09T07:51:55.358Z,43.04
2023-05-09T07:53:16.712Z,43.22
2023-05-09T07:54:40.837Z,42.60
2023-05-09T07:56:03.013Z,41.75
2023-05-09T07:57:32.464Z,41.63
2023-05-09T07:58:55.866Z,41.08
2023-05-09T08:00:29.801Z,40.59
2023-05-09T08:01:51.744Z,41.56
2023-05-09T08:03:20.896Z,42.26
2023-05-09T08:04:56.059Z,41.81
2023-05-09T08:06:19.825Z,41.79
2023-05-09T08:07:41.776Z,40.41
2023-05-09T08:09:04.490Z,39.95
2023-05-09T08:10:33.563Z,40.71
2023-05-09T08:11:55.631Z,40.10
2023-05-09T08:13:19.511Z,40.07
2023-05-09T08:14:41.321Z,41.07
2023-05-09T08:16:03.661Z,39.64
2023-05-09T08:17:25.472Z,40.02
2023-05-09T08:18:54.551Z,40.45
2023-05-09T08:20:16.075Z,39.70
2023-05-09T08:21:51.872Z,39.61
2023-05-09T08:23:21.003Z,39.73
2023-05-09T08:24:43.038Z,39.91
2023-05-09T08:26:05.481Z,39.83
2023-05-09T08:27:26.910Z,39.94
2023-05-09T08:28:49.610Z,41.11
2023-05-09T08:30:11.414Z,41.39
2023-05-09T08:31:32.954Z,41.52
2023-05-09T08:32:57.273Z,41.36
2023-05-09T08:34:21.238Z,41.19
2023-05-09T08:37:42.372Z,41.56
2023-05-09T08:39:11.425Z,40.02
2023-05-09T08:40:33.481Z,39.76
2023-05-09T08:42:07.293Z,38.74
2023-05-09T08:43:31.418Z,39.01
2023-05-09T08:44:53.385Z,39.25
2023-05-09T08:46:26.586Z,39.65
2023-05-09T08:47:55.580Z,38.90
2023-05-09T08:49:17.179Z,39.22
2023-05-09T08:50:41.117Z,39.92
2023-05-09T08:52:05.167Z,40.84
2023-05-09T08:53:27.112Z,39.26
2023-05-09T08:54:53.481Z,38.67
2023-05-09T08:56:17.345Z,38.58
2023-05-09T08:57:38.908Z,39.94
2023-05-09T08:59:00.834Z,40.40
2023-05-09T09:00:22.696Z,40.83
2023-05-09T09:01:44.543Z,38.99
2023-05-09T09:03:06.520Z,39.03
2023-05-09T09:04:39.649Z,39.79
2023-05-09T09:06:09.211Z,39.54
2023-05-09T09:07:33.041Z,40.56
2023-05-09T09:08:55.044Z,41.03
2023-05-09T09:10:16.736Z,40.22
2023-05-09T09:11:39.085Z,38.61
2023-05-09T09:13:03.289Z,38.71
2023-05-09T09:14:40.097Z,38.19
2023-05-09T09:16:15.983Z,37.14
2023-05-09T09:17:39.972Z,38.35
2023-05-09T09:19:01.965Z,37.94
2023-05-09T09:20:30.830Z,37.94
2023-05-09T09:21:56.166Z,38.26
2023-05-09T09:23:17.697Z,38.62
2023-05-09T09:24:39.181Z,38.13
2023-05-09T09:26:03.294Z,37.22
2023-05-09T09:27:25.277Z,36.89
2023-05-09T09:28:47.221Z,36.55
2023-05-09T09:30:08.764Z,37.67
2023-05-09T09:31:30.508Z,39.30
2023-05-09T09:32:54.702Z,37.81
2023-05-09T09:34:16.185Z,38.07
2023-05-09T09:35:38.061Z,37.38
2023-05-09T09:37:02.306Z,37.97
2023-05-09T09:38:31.162Z,37.16
2023-05-09T09:39:53.522Z,36.54
2023-05-09T09:41:15.324Z,36.48
2023-05-09T09:42:37.958Z,37.01
2023-05-09T09:43:59.968Z,36.73
2023-05-09T09:45:21.889Z,35.57
2023-05-09T09:46:51.501Z,36.14
2023-05-09T09:48:15.496Z,35.93
2023-05-09T09:49:37.232Z,37.35
2023-05-09T09:50:58.991Z,35.99
2023-05-09T09:52:20.812Z,37.09
2023-05-09T09:53:49.955Z,36.78
2023-05-09T09:55:13.604Z,36.81
2023-05-09T09:56:36.125Z,36.41
2023-05-09T09:57:57.921Z,36.33
2023-05-09T09:59:19.403Z,36.29
2023-05-09T10:00:43.894Z,36.59
2023-05-09T10:02:15.107Z,37.84
2023-05-09T10:03:44.337Z,35.99
2023-05-09T10:05:06.534Z,37.10
2023-05-09T10:06:28.623Z,37.88
2023-05-09T10:07:53.380Z,37.28
2023-05-09T10:09:22.478Z,36.41
2023-05-09T10:10:56.074Z,35.89
2023-05-09T10:12:20.066Z,36.22
2023-05-09T10:13:42.621Z,36.46
2023-05-09T10:15:07.739Z,36.54
2023-05-09T10:16:42.762Z,36.45
2023-05-09T10:18:08.171Z,34.95
2023-05-09T10:19:32.399Z,35.71
2023-05-09T10:20:54.857Z,36.47
2023-05-09T10:22:16.601Z,36.59
2023-05-09T10:23:38.327Z,37.37
2023-05-09T10:25:00.186Z,35.97
2023-05-09T10:26:36.197Z,35.71
2023-05-09T10:27:58.004Z,35.22
2023-05-09T10:29:27.039Z,36.15
2023-05-09T10:30:56.547Z,35.24
2023-05-09T10:32:20.401Z,35.06
2023-05-09T10:33:44.435Z,35.99
2023-05-09T10:35:06.885Z,35.28
2023-05-09T10:36:29.329Z,35.02
2023-05-09T10:37:51.170Z,35.13
2023-05-09T10:39:20.205Z,35.22
2023-05-09T10:40:42.008Z,38.47
2023-05-09T10:42:04.083Z,37.05
2023-05-09T10:43:28.339Z,35.06
2023-05-09T10:44:49.973Z,35.61
2023-05-09T10:46:11.573Z,36.16
2023-05-09T10:47:35.842Z,34.96
2023-05-09T10:48:57.523Z,34.90
2023-05-09T10:50:39.202Z,34.59
2023-05-09T10:52:03.657Z,33.89
2023-05-09T10:53:28.398Z,33.07
2023-05-09T10:54:59.640Z,32.40
2023-05-09T10:56:29.265Z,31.09
2023-05-09T10:57:50.866Z,32.98
2023-05-09T10:59:12.613Z,33.25
2023-05-09T11:00:36.812Z,34.01
2023-05-09T11:02:10.015Z,33.36
2023-05-09T11:03:34.270Z,32.22
2023-05-09T11:04:56.211Z,32.32
2023-05-09T11:06:17.973Z,32.72
2023-05-09T11:07:40.000Z,32.69
2023-05-09T11:09:11.502Z,32.40
2023-05-09T11:10:35.386Z,32.20
2023-05-09T11:11:57.379Z,31.67
2023-05-09T11:13:23.813Z,32.12
2023-05-09T11:15:05.481Z,32.08
2023-05-09T11:16:27.940Z,31.18
2023-05-09T11:17:49.510Z,31.37
2023-05-09T11:19:11.268Z,31.20
2023-05-09T11:20:35.869Z,31.07
2023-05-09T11:22:00.447Z,31.45
2023-05-09T11:23:22.273Z,30.36
2023-05-09T11:24:51.365Z,31.40
2023-05-09T11:26:20.662Z,31.25
2023-05-09T11:27:43.247Z,30.49
2023-05-09T11:29:10.140Z,31.29
2023-05-09T11:30:32.150Z,30.75
2023-05-09T11:31:54.646Z,30.11
2023-05-09T11:33:16.453Z,30.45
2023-05-09T11:34:38.249Z,31.79
2023-05-09T11:36:00.688Z,30.91
2023-05-09T11:37:29.594Z,30.29
2023-05-09T11:38:51.500Z,30.35
2023-05-09T11:40:15.702Z,30.43
2023-05-09T11:41:39.745Z,30.18
2023-05-09T11:43:02.394Z,29.74
2023-05-09T11:44:38.836Z,30.14
2023-05-09T11:46:05.488Z,29.46
2023-05-09T11:47:29.472Z,29.57
2023-05-09T11:49:14.587Z,30.24
2023-05-09T11:50:48.259Z,29.50
2023-05-09T11:52:21.858Z,28.91
2023-05-09T11:53:47.105Z,28.14
2023-05-09T11:55:31.492Z,29.48
2023-05-09T11:57:17.058Z,28.13
2023-05-09T11:59:02.024Z,28.20
2023-05-09T12:00:46.171Z,27.89
2023-05-09T12:02:15.922Z,29.00
2023-05-09T12:03:45.091Z,28.35
2023-05-09T12:05:20.042Z,27.88
2023-05-09T12:06:43.273Z,27.70
2023-05-09T12:08:10.615Z,28.25
2023-05-09T12:09:37.768Z,28.78
2023-05-09T12:10:59.787Z,28.45
2023-05-09T12:12:33.473Z,28.64
2023-05-09T12:13:55.398Z,28.23
2023-05-09T12:15:20.064Z,27.88
2023-05-09T12:16:44.068Z,27.15
2023-05-09T12:18:08.638Z,26.44
2023-05-09T12:19:32.964Z,26.67
2023-05-09T12:20:54.743Z,26.45
2023-05-09T12:22:19.266Z,25.99
2023-05-09T12:23:54.877Z,26.35
2023-05-09T12:25:16.993Z,26.17
2023-05-09T12:26:41.113Z,26.25
2023-05-09T12:28:14.949Z,26.34
2023-05-09T12:29:48.782Z,26.44
2023-05-09T12:31:12.506Z,25.60
2023-05-09T12:32:36.629Z,25.53
2023-05-09T12:34:01.636Z,25.17
2023-05-09T12:35:30.998Z,24.42
2023-05-09T12:37:00.189Z,25.22
2023-05-09T12:38:26.479Z,25.50
2023-05-09T12:39:50.496Z,25.85
2023-05-09T12:41:41.376Z,25.95
2023-05-09T12:43:18.041Z,25.68
2023-05-09T12:44:39.635Z,25.23
2023-05-09T12:46:02.260Z,24.86
2023-05-09T12:47:47.297Z,23.86
2023-05-09T12:49:11.856Z,24.91
2023-05-09T12:50:36.494Z,25.11
2023-05-09T12:52:07.740Z,24.82
2023-05-09T12:53:54.108Z,24.99
2023-05-09T12:55:23.445Z,24.40
2023-05-09T12:56:46.776Z,25.00
2023-05-09T12:58:11.296Z,24.46
2023-05-09T12:59:42.575Z,23.82
2023-05-09T13:01:18.701Z,23.65
2023-05-09T13:02:42.705Z,23.59
2023-05-09T13:04:07.485Z,23.20
2023-05-09T13:05:50.656Z,23.16
2023-05-09T13:07:12.235Z,23.64
2023-05-09T13:08:35.916Z,23.82
2023-05-09T13:10:05.619Z,24.39
2023-05-09T13:11:38.890Z,24.30
2023-05-09T13:13:14.672Z,24.18
2023-05-09T13:14:47.950Z,23.91
2023-05-09T13:16:11.161Z,23.40
2023-05-09T13:17:45.686Z,22.31
2023-05-09T13:19:07.965Z,22.33
2023-05-09T13:20:36.931Z,22.55
2023-05-09T13:21:59.199Z,22.20
2023-05-09T13:23:32.637Z,22.22
2023-05-09T13:25:01.827Z,22.86
2023-05-09T13:26:23.559Z,22.39
2023-05-09T13:27:46.021Z,23.12
2023-05-09T13:29:07.893Z,23.14
2023-05-09T13:30:29.569Z,23.00
2023-05-09T13:31:52.101Z,22.79
2023-05-09T13:33:25.245Z,22.60
2023-05-09T13:34:57.984Z,22.27
2023-05-09T13:36:19.815Z,22.37
2023-05-09T13:37:49.680Z,23.29
2023-05-09T13:39:11.879Z,23.42
2023-05-09T13:40:35.871Z,22.88
2023-05-09T13:42:09.162Z,23.78
2023-05-09T13:43:32.972Z,23.13
2023-05-09T13:44:57.270Z,22.69
2023-05-09T13:46:44.331Z,22.82
2023-05-09T13:48:08.969Z,22.55
2023-05-09T13:49:38.210Z,22.46
2023-05-09T13:51:01.301Z,22.43
2023-05-09T13:52:24.855Z,22.52
2023-05-09T13:53:48.667Z,22.86
2023-05-09T13:55:14.871Z,23.21
2023-05-09T13:56:36.948Z,22.84
2023-05-09T13:57:59.037Z,22.57
2023-05-09T13:59:20.576Z,21.92
2023-05-09T14:00:46.810Z,21.70
2023-05-09T14:02:08.768Z,22.43
2023-05-09T14:03:30.635Z,22.40
2023-05-09T14:04:54.553Z,22.83
2023-05-09T14:06:18.790Z,22.17
2023-05-09T14:07:54.720Z,21.96
2023-05-09T14:09:41.489Z,22.28
2023-05-09T14:11:11.018Z,22.20
2023-05-09T14:12:40.843Z,21.80
2023-05-09T14:14:16.798Z,21.30
2023-05-09T14:16:01.368Z,21.49
2023-05-09T14:17:46.854Z,21.49
2023-05-09T14:19:08.750Z,21.28
2023-05-09T14:20:42.201Z,21.71
2023-05-09T14:22:20.268Z,22.84
2023-05-09T14:23:55.900Z,21.27
2023-05-09T14:25:17.937Z,21.04
2023-05-09T14:26:40.079Z,20.94
2023-05-09T14:28:10.431Z,21.00
2023-05-09T14:29:46.097Z,21.29
2023-05-09T14:31:28.673Z,21.51
2023-05-09T14:32:50.846Z,21.84
2023-05-09T14:34:24.018Z,21.63
2023-05-09T14:36:09.130Z,21.82
2023-05-09T14:37:44.960Z,21.43
2023-05-09T14:39:20.416Z,21.84
2023-05-09T14:40:42.302Z,21.32
2023-05-09T14:42:17.493Z,21.22
2023-05-09T14:43:41.306Z,20.97
2023-05-09T14:45:03.512Z,21.26
2023-05-09T14:46:29.992Z,21.17
2023-05-09T14:47:59.083Z,20.80
2023-05-09T14:49:27.923Z,20.51
2023-05-09T14:50:56.764Z,20.53
2023-05-09T14:52:32.805Z,20.77
2023-05-09T14:54:06.066Z,20.88
2023-05-09T14:55:39.324Z,20.66
2023-05-09T14:57:08.984Z,20.39
2023-05-09T14:58:32.997Z,20.33
2023-05-09T14:59:59.064Z,20.40
2023-05-09T15:01:30.562Z,20.22
2023-05-09T15:02:54.583Z,20.29
2023-05-09T15:04:28.381Z,20.42
2023-05-09T15:06:02.466Z,20.48
2023-05-09T15:07:35.877Z,20.24
2023-05-09T15:09:02.426Z,20.11
2023-05-09T15:10:31.898Z,20.22
2023-05-09T15:12:05.299Z,19.94
2023-05-09T15:13:27.335Z,19.89
2023-05-09T15:14:48.865Z,20.24
2023-05-09T15:16:12.992Z,20.68
2023-05-09T15:17:41.930Z,20.19
2023-05-09T15:19:15.437Z,20.69
2023-05-09T15:20:37.422Z,20.38
2023-05-09T15:22:10.827Z,20.17
2023-05-09T15:23:32.773Z,20.00
2023-05-09T15:24:54.906Z,20.19
2023-05-09T15:26:16.973Z,20.46
2023-05-09T15:27:50.517Z,20.11
2023-05-09T15:29:19.740Z,20.77
2023-05-09T15:30:45.353Z,20.31
2023-05-09T15:32:14.980Z,21.03
2023-05-09T15:33:50.485Z,20.90
2023-05-09T15:35:24.116Z,20.63
2023-05-09T15:36:45.611Z,20.44
2023-05-09T15:38:11.957Z,20.15
2023-05-09T15:39:43.252Z,20.07
2023-05-09T15:41:16.950Z,20.22
2023-05-09T15:42:50.821Z,20.22
2023-05-09T15:44:14.880Z,20.33
2023-05-09T15:45:46.493Z,20.08
2023-05-09T15:47:17.937Z,19.84
2023-05-09T15:48:40.038Z,20.39
2023-05-09T15:50:01.674Z,20.27
2023-05-09T15:51:31.042Z,20.37
2023-05-09T15:53:04.688Z,20.60
2023-05-09T15:54:26.982Z,20.48
2023-05-09T15:55:50.903Z,20.28
2023-05-09T15:57:13.335Z,20.56
2023-05-09T15:58:35.117Z,20.73
2023-05-09T15:59:57.189Z,21.78
2023-05-09T16:01:19.098Z,21.40
2023-05-09T16:02:42.096Z,21.00
2023-05-09T16:04:05.283Z,21.48
2023-05-09T16:05:27.697Z,22.17
2023-05-09T16:06:49.046Z,22.25
2023-05-09T16:08:18.695Z,21.96
2023-05-09T16:09:40.329Z,22.51
2023-05-09T16:11:04.674Z,22.64
2023-05-09T16:12:26.843Z,22.94
2023-05-09T16:13:48.490Z,23.89
2023-05-09T16:15:10.157Z,24.50
2023-05-09T16:16:31.869Z,24.60
2023-05-09T16:18:00.900Z,24.68
2023-05-09T16:19:36.700Z,24.46
2023-05-09T16:21:10.147Z,24.65
2023-05-09T16:22:32.253Z,24.78
2023-05-09T16:23:53.792Z,25.04
2023-05-09T16:25:15.497Z,25.30
2023-05-09T16:26:37.426Z,25.71
2023-05-09T16:27:59.044Z,26.01
2023-05-09T16:29:22.333Z,26.42
2023-05-09T16:30:44.117Z,27.03
2023-05-09T16:32:08.452Z,27.45
2023-05-09T16:33:30.190Z,27.31
2023-05-09T16:34:53.848Z,27.81
2023-05-09T16:36:15.593Z,27.97
2023-05-09T16:37:37.437Z,28.52
2023-05-09T16:38:59.198Z,28.93
2023-05-09T16:40:21.252Z,29.32
2023-05-09T16:41:45.384Z,29.25
2023-05-09T16:43:07.245Z,29.70
2023-05-09T16:44:31.485Z,29.98
2023-05-09T16:45:53.681Z,29.90
2023-05-09T16:47:15.161Z,30.38
2023-05-09T16:48:36.474Z,30.70
2023-05-09T16:49:58.038Z,30.73
2023-05-09T16:51:19.708Z,30.83
2023-05-09T16:52:44.054Z,31.22
2023-05-09T16:54:05.749Z,31.52
2023-05-09T16:55:27.363Z,32.28
2023-05-09T16:56:51.745Z,31.94
2023-05-09T16:58:15.604Z,32.08
2023-05-09T16:59:37.332Z,32.47
2023-05-09T17:01:02.135Z,32.87
2023-05-09T17:02:24.160Z,33.18
2023-05-09T17:03:48.222Z,33.03
2023-05-09T17:05:09.956Z,33.32
2023-05-09T17:06:36.312Z,33.62
2023-05-09T17:08:00.280Z,33.71
2023-05-09T17:09:24.379Z,33.88
2023-05-09T17:10:46.124Z,34.12
2023-05-09T17:12:10.352Z,34.34
2023-05-09T17:13:34.637Z,34.45
2023-05-09T17:14:56.609Z,34.60
2023-05-09T17:16:18.128Z,34.86
2023-05-09T17:17:42.110Z,35.14
2023-05-09T17:19:03.958Z,35.72
2023-05-09T17:20:28.862Z,35.69
2023-05-09T17:21:50.710Z,36.24
2023-05-09T17:23:14.308Z,36.20
2023-05-09T17:24:45.199Z,36.15
2023-05-09T17:26:07.032Z,36.33
2023-05-09T17:27:28.824Z,36.95
2023-05-09T17:28:50.517Z,36.63
2023-05-09T17:30:12.900Z,36.77
2023-05-09T17:31:35.030Z,36.95
2023-05-09T17:33:17.657Z,36.96
2023-05-09T17:34:41.928Z,36.88
2023-05-09T17:36:15.328Z,37.41
2023-05-09T17:37:39.456Z,37.30
2023-05-09T17:39:01.554Z,37.61
2023-05-09T17:40:25.319Z,37.66
2023-05-09T17:41:47.483Z,37.92
2023-05-09T17:43:08.952Z,37.78
2023-05-09T17:44:30.719Z,38.19
2023-05-09T17:45:54.794Z,38.16
2023-05-09T17:47:16.406Z,38.47
2023-05-09T17:48:38.670Z,38.38
2023-05-09T17:50:00.852Z,38.53
2023-05-09T17:51:22.740Z,38.41
2023-05-09T17:52:47.688Z,38.56
2023-05-09T17:54:11.656Z,38.36
2023-05-09T17:55:33.345Z,38.40
2023-05-09T17:56:59.083Z,38.76
2023-05-09T17:58:23.251Z,39.06
2023-05-09T17:59:48.042Z,38.93
2023-05-09T18:01:21.695Z,39.22
2023-05-09T18:02:51.036Z,39.56
2023-05-09T18:04:15.654Z,39.90
2023-05-09T18:05:37.672Z,39.95
2023-05-09T18:06:59.123Z,40.11
2023-05-09T18:08:20.857Z,40.45
2023-05-09T18:09:50.085Z,40.48
2023-05-09T18:11:11.700Z,40.41
2023-05-09T18:12:36.780Z,40.44
2023-05-09T18:13:58.702Z,40.87
2023-05-09T18:15:20.049Z,40.75
2023-05-09T18:16:43.939Z,40.87
2023-05-09T18:18:15.634Z,41.09
2023-05-09T18:19:39.889Z,41.19
2023-05-09T18:21:13.597Z,41.28
2023-05-09T18:22:37.231Z,41.61
2023-05-09T18:24:10.740Z,41.80
2023-05-09T18:25:34.654Z,41.98
2023-05-09T18:26:58.840Z,42.14
2023-05-09T18:28:42.912Z,42.34
2023-05-09T18:30:24.600Z,42.28
2023-05-09T18:31:46.037Z,42.34
2023-05-09T18:33:08.113Z,42.95
2023-05-09T18:34:30.318Z,42.83
2023-05-09T18:35:52.101Z,43.04
2023-05-09T18:37:16.098Z,42.99
2023-05-09T18:38:41.061Z,43.23
2023-05-09T18:40:19.516Z,43.52
2023-05-09T18:41:41.104Z,43.81
2023-05-09T18:43:05.258Z,43.46
2023-05-09T18:44:29.217Z,43.59